Lebanon Municipal Airport Lebanon US
ICAO: KLEB
IATA: LEB
Category: Medium
Scheduled Services: Yes

Elevation: 603 ft
TransAlt. 18000 ft.

Airport Communications:
BOSTON APP/DEP:134.7
ASOS:118.65
ATIS:118.65
CTAF:125.95
GND:121.6
BANGOR RDO:122.2
TWR:125.95
UNICOM:122.95

KLEB Zoom In..

Runways:

(A) RW 07 length 5496 ft width 100 ft
---- / hdg 75

(B) RW 18 length 5200 ft width 100 ft
ILS 111.90 / hdg 184

(C) RW 25 length 5496 ft width 100 ft
---- / hdg 255

(D) RW 36 length 5200 ft width 100 ft
---- / hdg 4

Location; KLEB
Day. 25 / Time. 11.53 Zulu
* Altimeter: 30.10
* Temperature: 10° c. 50°f.
* Wind from: 000° Speed 00 kn.
Dewpoint: 06° c.
Visibility: 9 Statute Miles.
Clouds: Few 3300 ft.
Clouds: Broken 4800 ft.
Clouds: Overcast 6000 ft.
Conditions: Light Rain.

KLEB 251153Z 00000KT 9SM -RA FEW033 BKN048 OVC060 10/06 A3010 RMK AO2 SLP192 P0001 60002 70002 T01000061 10128 20094 58001


Wind - Calm.

  YouTube Music Video
 
jpsmedia.com for Web Design  worldairports.se 2018   terms of use